Aviation Digital Data Service (ADDS)

Output produced by METARs form (1318 UTC 19 January 2019)
found at http://www.aviationweather.gov/metar/data/
 
Forecast for: PASI (SITKA , AK, US)
Text: PASI 191135Z 1912/2012 35006KT P6SM OVC060
Forecast period: 1200 UTC 19 January 2019 to 0700 UTC 20 January 2019
Forecast type: FROM: standard forecast or significant change
Winds: from the N (350 degrees) at 7 MPH (6 knots; 3.1 m/s)
Visibility: 6 or more miles 10+ km)
Ceiling: 6000 feet AGL
Clouds: overcast cloud deck at 6000 feet AGL
Weather: no significant weather forecast for this period
Text: FM200700 11005KT P6SM -RA SCT025 OVC050
Forecast period: 0700 to 1200 UTC 20 January 2019
Forecast type: FROM: standard forecast or significant change
Winds: from the ESE (110 degrees) at 6 MPH (5 knots; 2.6 m/s)
Visibility: 6 or more miles 10+ km)
Ceiling: 5000 feet AGL
Clouds: scattered clouds at 2500 feet AGL
overcast cloud deck at 5000 feet AGL
Weather: -RA  (light rain)